sensor_id;sensor_type;location;lat;lon;timestamp;P1;durP1;ratioP1;P2;durP2;ratioP2
39256;SDS011;67272;48.066;11.038;2023-05-10T00:00:29;1.40;;;1.30;;
39256;SDS011;67272;48.066;11.038;2023-05-10T00:02:56;1.20;;;1.10;;
39256;SDS011;67272;48.066;11.038;2023-05-10T00:05:22;1.25;;;1.17;;
39256;SDS011;67272;48.066;11.038;2023-05-10T00:07:49;1.10;;;1.10;;
39256;SDS011;67272;48.066;11.038;2023-05-10T00:10:15;1.20;;;1.10;;
39256;SDS011;67272;48.066;11.038;2023-05-10T00:12:41;1.20;;;1.10;;
39256;SDS011;67272;48.066;11.038;2023-05-10T00:15:08;1.33;;;1.23;;
39256;SDS011;67272;48.066;11.038;2023-05-10T00:17:38;1.33;;;1.23;;
39256;SDS011;67272;48.066;11.038;2023-05-10T00:20:05;1.10;;;1.10;;
39256;SDS011;67272;48.066;11.038;2023-05-10T00:22:31;1.55;;;1.00;;
39256;SDS011;67272;48.066;11.038;2023-05-10T00:25:10;0.82;;;0.82;;
39256;SDS011;67272;48.066;11.038;2023-05-10T00:27:45;1.05;;;1.00;;
39256;SDS011;67272;48.066;11.038;2023-05-10T00:30:14;0.80;;;0.80;;
39256;SDS011;67272;48.066;11.038;2023-05-10T00:32:44;0.93;;;0.90;;
39256;SDS011;67272;48.066;11.038;2023-05-10T00:35:14;1.40;;;0.90;;
39256;SDS011;67272;48.066;11.038;2023-05-10T00:37:43;0.80;;;0.80;;
39256;SDS011;67272;48.066;11.038;2023-05-10T00:40:10;0.77;;;0.77;;
39256;SDS011;67272;48.066;11.038;2023-05-10T00:42:37;1.02;;;0.80;;
39256;SDS011;67272;48.066;11.038;2023-05-10T00:45:05;0.82;;;0.82;;
39256;SDS011;67272;48.066;11.038;2023-05-10T00:47:34;0.80;;;0.80;;
39256;SDS011;67272;48.066;11.038;2023-05-10T00:50:04;0.80;;;0.80;;
39256;SDS011;67272;48.066;11.038;2023-05-10T00:52:31;0.85;;;0.85;;
39256;SDS011;67272;48.066;11.038;2023-05-10T00:55:00;1.13;;;0.88;;
39256;SDS011;67272;48.066;11.038;2023-05-10T00:57:38;0.80;;;0.80;;
39256;SDS011;67272;48.066;11.038;2023-05-10T01:00:04;0.82;;;0.82;;
39256;SDS011;67272;48.066;11.038;2023-05-10T01:02:32;1.67;;;0.90;;
39256;SDS011;67272;48.066;11.038;2023-05-10T01:04:59;0.70;;;0.70;;
39256;SDS011;67272;48.066;11.038;2023-05-10T01:07:26;0.95;;;0.90;;
39256;SDS011;67272;48.066;11.038;2023-05-10T01:09:52;0.80;;;0.80;;
39256;SDS011;67272;48.066;11.038;2023-05-10T01:12:28;0.93;;;0.90;;
39256;SDS011;67272;48.066;11.038;2023-05-10T01:14:55;0.80;;;0.80;;
39256;SDS011;67272;48.066;11.038;2023-05-10T01:17:25;0.90;;;0.90;;
39256;SDS011;67272;48.066;11.038;2023-05-10T01:19:52;0.90;;;0.90;;
39256;SDS011;67272;48.066;11.038;2023-05-10T01:39:15;1.10;;;1.10;;
39256;SDS011;67272;48.066;11.038;2023-05-10T01:41:35;1.00;;;1.00;;
39256;SDS011;67272;48.066;11.038;2023-05-10T01:46:41;1.05;;;1.00;;
39256;SDS011;67272;48.066;11.038;2023-05-10T01:49:23;0.80;;;0.80;;
39256;SDS011;67272;48.066;11.038;2023-05-10T01:51:51;0.90;;;0.90;;
39256;SDS011;67272;48.066;11.038;2023-05-10T01:54:25;0.80;;;0.80;;
39256;SDS011;67272;48.066;11.038;2023-05-10T01:56:59;1.00;;;1.00;;
39256;SDS011;67272;48.066;11.038;2023-05-10T01:59:28;1.08;;;1.00;;
39256;SDS011;67272;48.066;11.038;2023-05-10T02:01:56;0.90;;;0.90;;
39256;SDS011;67272;48.066;11.038;2023-05-10T02:04:25;0.90;;;0.90;;
39256;SDS011;67272;48.066;11.038;2023-05-10T02:06:52;0.90;;;0.90;;
39256;SDS011;67272;48.066;11.038;2023-05-10T02:09:26;0.90;;;0.90;;
39256;SDS011;67272;48.066;11.038;2023-05-10T02:11:54;1.17;;;1.02;;
39256;SDS011;67272;48.066;11.038;2023-05-10T02:14:20;0.60;;;0.60;;
39256;SDS011;67272;48.066;11.038;2023-05-10T02:16:50;0.85;;;0.85;;
39256;SDS011;67272;48.066;11.038;2023-05-10T02:19:17;0.93;;;0.88;;
39256;SDS011;67272;48.066;11.038;2023-05-10T02:21:44;0.80;;;0.80;;
39256;SDS011;67272;48.066;11.038;2023-05-10T02:24:14;0.85;;;0.80;;
39256;SDS011;67272;48.066;11.038;2023-05-10T02:26:41;0.80;;;0.80;;
39256;SDS011;67272;48.066;11.038;2023-05-10T02:29:17;0.63;;;0.63;;
39256;SDS011;67272;48.066;11.038;2023-05-10T02:31:49;0.70;;;0.70;;
39256;SDS011;67272;48.066;11.038;2023-05-10T02:34:17;0.70;;;0.70;;
39256;SDS011;67272;48.066;11.038;2023-05-10T02:36:45;0.60;;;0.60;;
39256;SDS011;67272;48.066;11.038;2023-05-10T02:39:11;0.70;;;0.70;;
39256;SDS011;67272;48.066;11.038;2023-05-10T02:41:41;0.60;;;0.60;;
39256;SDS011;67272;48.066;11.038;2023-05-10T02:44:08;0.80;;;0.80;;
39256;SDS011;67272;48.066;11.038;2023-05-10T02:46:35;0.80;;;0.80;;
39256;SDS011;67272;48.066;11.038;2023-05-10T02:49:02;0.80;;;0.80;;
39256;SDS011;67272;48.066;11.038;2023-05-10T02:51:30;0.80;;;0.80;;
39256;SDS011;67272;48.066;11.038;2023-05-10T02:53:57;0.73;;;0.73;;
39256;SDS011;67272;48.066;11.038;2023-05-10T02:56:30;1.23;;;0.75;;
39256;SDS011;67272;48.066;11.038;2023-05-10T02:58:58;2.67;;;1.00;;
39256;SDS011;67272;48.066;11.038;2023-05-10T03:01:24;1.17;;;0.80;;
39256;SDS011;67272;48.066;11.038;2023-05-10T03:03:53;0.60;;;0.60;;
39256;SDS011;67272;48.066;11.038;2023-05-10T03:06:20;3.00;;;0.90;;
39256;SDS011;67272;48.066;11.038;2023-05-10T03:08:46;1.63;;;0.80;;
39256;SDS011;67272;48.066;11.038;2023-05-10T03:11:26;0.70;;;0.70;;
39256;SDS011;67272;48.066;11.038;2023-05-10T03:14:10;0.70;;;0.70;;
39256;SDS011;67272;48.066;11.038;2023-05-10T03:16:52;1.08;;;0.70;;
39256;SDS011;67272;48.066;11.038;2023-05-10T03:19:27;0.80;;;0.80;;
39256;SDS011;67272;48.066;11.038;2023-05-10T03:21:59;0.70;;;0.70;;
39256;SDS011;67272;48.066;11.038;2023-05-10T03:24:31;0.80;;;0.80;;
39256;SDS011;67272;48.066;11.038;2023-05-10T03:27:00;0.70;;;0.70;;
39256;SDS011;67272;48.066;11.038;2023-05-10T03:29:29;0.73;;;0.73;;
39256;SDS011;67272;48.066;11.038;2023-05-10T03:31:59;0.70;;;0.70;;
39256;SDS011;67272;48.066;11.038;2023-05-10T03:34:29;0.80;;;0.70;;
39256;SDS011;67272;48.066;11.038;2023-05-10T03:36:56;0.75;;;0.75;;
39256;SDS011;67272;48.066;11.038;2023-05-10T03:39:29;0.77;;;0.65;;
39256;SDS011;67272;48.066;11.038;2023-05-10T03:42:01;0.70;;;0.70;;
39256;SDS011;67272;48.066;11.038;2023-05-10T03:44:29;0.70;;;0.70;;
39256;SDS011;67272;48.066;11.038;2023-05-10T03:46:55;0.80;;;0.80;;
39256;SDS011;67272;48.066;11.038;2023-05-10T03:49:26;0.73;;;0.73;;
39256;SDS011;67272;48.066;11.038;2023-05-10T03:51:52;0.73;;;0.73;;
39256;SDS011;67272;48.066;11.038;2023-05-10T03:54:18;0.85;;;0.75;;
39256;SDS011;67272;48.066;11.038;2023-05-10T03:56:45;0.70;;;0.70;;
39256;SDS011;67272;48.066;11.038;2023-05-10T03:59:17;1.25;;;0.70;;
39256;SDS011;67272;48.066;11.038;2023-05-10T04:01:50;0.77;;;0.77;;
39256;SDS011;67272;48.066;11.038;2023-05-10T04:04:16;0.80;;;0.80;;
39256;SDS011;67272;48.066;11.038;2023-05-10T04:06:44;0.73;;;0.73;;
39256;SDS011;67272;48.066;11.038;2023-05-10T04:09:10;1.10;;;0.80;;
39256;SDS011;67272;48.066;11.038;2023-05-10T04:11:39;0.88;;;0.88;;
39256;SDS011;67272;48.066;11.038;2023-05-10T04:14:06;1.00;;;0.90;;
39256;SDS011;67272;48.066;11.038;2023-05-10T04:16:32;1.17;;;1.08;;
39256;SDS011;67272;48.066;11.038;2023-05-10T04:18:58;0.88;;;0.88;;
39256;SDS011;67272;48.066;11.038;2023-05-10T04:21:28;0.73;;;0.73;;
39256;SDS011;67272;48.066;11.038;2023-05-10T04:23:58;0.90;;;0.90;;
39256;SDS011;67272;48.066;11.038;2023-05-10T04:26:27;1.10;;;1.00;;
39256;SDS011;67272;48.066;11.038;2023-05-10T04:28:54;0.90;;;0.90;;
39256;SDS011;67272;48.066;11.038;2023-05-10T04:31:20;1.05;;;1.02;;
39256;SDS011;67272;48.066;11.038;2023-05-10T04:33:47;1.52;;;1.10;;
39256;SDS011;67272;48.066;11.038;2023-05-10T04:36:13;1.10;;;1.05;;
39256;SDS011;67272;48.066;11.038;2023-05-10T04:38:42;1.50;;;1.10;;
39256;SDS011;67272;48.066;11.038;2023-05-10T04:41:10;1.10;;;1.00;;
39256;SDS011;67272;48.066;11.038;2023-05-10T04:43:36;1.17;;;1.10;;
39256;SDS011;67272;48.066;11.038;2023-05-10T04:46:03;1.10;;;1.00;;
39256;SDS011;67272;48.066;11.038;2023-05-10T04:48:30;1.30;;;1.20;;
39256;SDS011;67272;48.066;11.038;2023-05-10T04:50:56;1.27;;;1.17;;
39256;SDS011;67272;48.066;11.038;2023-05-10T04:53:22;1.20;;;1.10;;
39256;SDS011;67272;48.066;11.038;2023-05-10T04:55:49;1.23;;;1.00;;
39256;SDS011;67272;48.066;11.038;2023-05-10T04:58:15;0.90;;;0.90;;
39256;SDS011;67272;48.066;11.038;2023-05-10T05:00:44;1.00;;;1.00;;
39256;SDS011;67272;48.066;11.038;2023-05-10T05:03:17;1.08;;;0.85;;
39256;SDS011;67272;48.066;11.038;2023-05-10T05:05:43;1.25;;;1.15;;
39256;SDS011;67272;48.066;11.038;2023-05-10T05:08:09;1.35;;;1.25;;
39256;SDS011;67272;48.066;11.038;2023-05-10T05:10:36;0.90;;;0.90;;
39256;SDS011;67272;48.066;11.038;2023-05-10T05:13:02;1.00;;;1.00;;
39256;SDS011;67272;48.066;11.038;2023-05-10T05:15:28;1.08;;;0.98;;
39256;SDS011;67272;48.066;11.038;2023-05-10T05:17:55;0.98;;;0.98;;
39256;SDS011;67272;48.066;11.038;2023-05-10T05:20:21;1.00;;;0.98;;
39256;SDS011;67272;48.066;11.038;2023-05-10T05:22:48;1.08;;;0.90;;
39256;SDS011;67272;48.066;11.038;2023-05-10T05:25:17;3.78;;;1.17;;
39256;SDS011;67272;48.066;11.038;2023-05-10T05:27:43;0.90;;;0.90;;
39256;SDS011;67272;48.066;11.038;2023-05-10T05:30:10;1.42;;;1.02;;
39256;SDS011;67272;48.066;11.038;2023-05-10T05:32:36;1.00;;;1.00;;
39256;SDS011;67272;48.066;11.038;2023-05-10T05:35:03;1.13;;;1.13;;
39256;SDS011;67272;48.066;11.038;2023-05-10T05:37:29;1.70;;;1.17;;
39256;SDS011;67272;48.066;11.038;2023-05-10T05:39:55;1.20;;;1.10;;
39256;SDS011;67272;48.066;11.038;2023-05-10T05:42:22;1.20;;;1.10;;
39256;SDS011;67272;48.066;11.038;2023-05-10T05:44:48;1.25;;;1.10;;
39256;SDS011;67272;48.066;11.038;2023-05-10T05:47:17;1.23;;;1.20;;
39256;SDS011;67272;48.066;11.038;2023-05-10T05:49:44;1.30;;;1.20;;
39256;SDS011;67272;48.066;11.038;2023-05-10T05:52:11;1.40;;;1.30;;
39256;SDS011;67272;48.066;11.038;2023-05-10T05:54:37;1.42;;;1.30;;
39256;SDS011;67272;48.066;11.038;2023-05-10T05:57:04;2.33;;;1.40;;
39256;SDS011;67272;48.066;11.038;2023-05-10T05:59:30;1.00;;;1.00;;
39256;SDS011;67272;48.066;11.038;2023-05-10T06:01:56;1.02;;;1.02;;
39256;SDS011;67272;48.066;11.038;2023-05-10T06:04:22;1.30;;;1.20;;
39256;SDS011;67272;48.066;11.038;2023-05-10T06:06:48;1.70;;;1.15;;
39256;SDS011;67272;48.066;11.038;2023-05-10T06:09:14;1.60;;;1.20;;
39256;SDS011;67272;48.066;11.038;2023-05-10T06:11:41;1.25;;;1.15;;
39256;SDS011;67272;48.066;11.038;2023-05-10T06:14:07;1.20;;;1.10;;
39256;SDS011;67272;48.066;11.038;2023-05-10T06:16:33;0.90;;;0.90;;
39256;SDS011;67272;48.066;11.038;2023-05-10T06:18:59;1.20;;;1.10;;
39256;SDS011;67272;48.066;11.038;2023-05-10T06:21:25;1.30;;;1.20;;
39256;SDS011;67272;48.066;11.038;2023-05-10T06:23:51;1.40;;;1.30;;
39256;SDS011;67272;48.066;11.038;2023-05-10T06:26:18;1.60;;;1.30;;
39256;SDS011;67272;48.066;11.038;2023-05-10T06:28:44;1.40;;;1.30;;
39256;SDS011;67272;48.066;11.038;2023-05-10T06:31:10;1.30;;;1.20;;
39256;SDS011;67272;48.066;11.038;2023-05-10T06:33:36;1.33;;;1.23;;
39256;SDS011;67272;48.066;11.038;2023-05-10T06:36:03;1.30;;;1.20;;
39256;SDS011;67272;48.066;11.038;2023-05-10T06:38:29;1.52;;;1.42;;
39256;SDS011;67272;48.066;11.038;2023-05-10T06:40:55;1.30;;;1.20;;
39256;SDS011;67272;48.066;11.038;2023-05-10T06:43:21;1.40;;;1.30;;
39256;SDS011;67272;48.066;11.038;2023-05-10T06:45:47;1.35;;;1.25;;
39256;SDS011;67272;48.066;11.038;2023-05-10T06:48:14;1.00;;;0.90;;
39256;SDS011;67272;48.066;11.038;2023-05-10T06:50:40;1.58;;;1.33;;
39256;SDS011;67272;48.066;11.038;2023-05-10T06:53:06;2.75;;;1.35;;
39256;SDS011;67272;48.066;11.038;2023-05-10T06:55:32;2.00;;;1.00;;
39256;SDS011;67272;48.066;11.038;2023-05-10T06:57:58;1.20;;;1.10;;
39256;SDS011;67272;48.066;11.038;2023-05-10T07:00:24;1.30;;;1.20;;
39256;SDS011;67272;48.066;11.038;2023-05-10T07:02:51;1.02;;;1.02;;
39256;SDS011;67272;48.066;11.038;2023-05-10T07:05:17;1.45;;;1.10;;
39256;SDS011;67272;48.066;11.038;2023-05-10T07:07:43;1.02;;;1.00;;
39256;SDS011;67272;48.066;11.038;2023-05-10T07:10:09;1.30;;;1.20;;
39256;SDS011;67272;48.066;11.038;2023-05-10T07:12:35;1.23;;;1.13;;
39256;SDS011;67272;48.066;11.038;2023-05-10T07:15:01;1.30;;;1.20;;
39256;SDS011;67272;48.066;11.038;2023-05-10T07:17:28;1.30;;;1.20;;
39256;SDS011;67272;48.066;11.038;2023-05-10T07:19:54;1.30;;;1.20;;
39256;SDS011;67272;48.066;11.038;2023-05-10T07:22:20;1.40;;;1.30;;
39256;SDS011;67272;48.066;11.038;2023-05-10T07:24:46;1.25;;;1.15;;
39256;SDS011;67272;48.066;11.038;2023-05-10T07:27:12;1.33;;;1.25;;
39256;SDS011;67272;48.066;11.038;2023-05-10T07:29:38;1.92;;;1.30;;
39256;SDS011;67272;48.066;11.038;2023-05-10T07:32:04;1.42;;;1.30;;
39256;SDS011;67272;48.066;11.038;2023-05-10T07:34:30;1.50;;;1.40;;
39256;SDS011;67272;48.066;11.038;2023-05-10T07:37:00;1.38;;;1.27;;
39256;SDS011;67272;48.066;11.038;2023-05-10T07:39:26;1.27;;;1.20;;
39256;SDS011;67272;48.066;11.038;2023-05-10T07:41:52;1.50;;;1.40;;
39256;SDS011;67272;48.066;11.038;2023-05-10T07:44:18;1.42;;;1.33;;
39256;SDS011;67272;48.066;11.038;2023-05-10T07:46:45;1.40;;;1.30;;
39256;SDS011;67272;48.066;11.038;2023-05-10T07:49:12;1.42;;;1.33;;
39256;SDS011;67272;48.066;11.038;2023-05-10T07:51:38;1.50;;;1.40;;
39256;SDS011;67272;48.066;11.038;2023-05-10T07:54:04;1.50;;;1.40;;
39256;SDS011;67272;48.066;11.038;2023-05-10T07:56:31;1.23;;;1.20;;
39256;SDS011;67272;48.066;11.038;2023-05-10T07:58:58;1.60;;;1.50;;
39256;SDS011;67272;48.066;11.038;2023-05-10T08:01:24;1.40;;;1.30;;
39256;SDS011;67272;48.066;11.038;2023-05-10T08:03:50;1.50;;;1.40;;
39256;SDS011;67272;48.066;11.038;2023-05-10T08:06:18;1.50;;;1.40;;
39256;SDS011;67272;48.066;11.038;2023-05-10T08:08:45;2.17;;;1.10;;
39256;SDS011;67272;48.066;11.038;2023-05-10T08:11:15;1.50;;;1.40;;
39256;SDS011;67272;48.066;11.038;2023-05-10T08:13:41;1.30;;;1.20;;
39256;SDS011;67272;48.066;11.038;2023-05-10T08:16:07;1.75;;;1.52;;
39256;SDS011;67272;48.066;11.038;2023-05-10T08:18:33;3.30;;;1.45;;
39256;SDS011;67272;48.066;11.038;2023-05-10T08:20:59;1.02;;;1.02;;
39256;SDS011;67272;48.066;11.038;2023-05-10T08:23:26;0.95;;;0.95;;
39256;SDS011;67272;48.066;11.038;2023-05-10T08:25:52;1.20;;;1.10;;
39256;SDS011;67272;48.066;11.038;2023-05-10T08:28:18;1.17;;;1.10;;
39256;SDS011;67272;48.066;11.038;2023-05-10T08:30:44;0.93;;;0.93;;
39256;SDS011;67272;48.066;11.038;2023-05-10T08:33:10;1.00;;;1.00;;
39256;SDS011;67272;48.066;11.038;2023-05-10T08:35:36;1.17;;;1.10;;
39256;SDS011;67272;48.066;11.038;2023-05-10T08:38:02;1.15;;;1.05;;
39256;SDS011;67272;48.066;11.038;2023-05-10T08:40:28;1.30;;;1.20;;
39256;SDS011;67272;48.066;11.038;2023-05-10T08:45:32;1.48;;;1.38;;
39256;SDS011;67272;48.066;11.038;2023-05-10T08:47:59;1.70;;;1.10;;
39256;SDS011;67272;48.066;11.038;2023-05-10T08:50:27;1.10;;;1.10;;
39256;SDS011;67272;48.066;11.038;2023-05-10T08:52:54;1.38;;;1.27;;
39256;SDS011;67272;48.066;11.038;2023-05-10T08:55:21;0.90;;;0.90;;
39256;SDS011;67272;48.066;11.038;2023-05-10T08:57:49;1.00;;;1.00;;
39256;SDS011;67272;48.066;11.038;2023-05-10T09:00:15;0.90;;;0.90;;
39256;SDS011;67272;48.066;11.038;2023-05-10T09:02:43;2.53;;;1.00;;
39256;SDS011;67272;48.066;11.038;2023-05-10T09:05:11;1.00;;;0.90;;
39256;SDS011;67272;48.066;11.038;2023-05-10T09:07:37;1.60;;;0.90;;
39256;SDS011;67272;48.066;11.038;2023-05-10T09:10:04;0.90;;;0.90;;
39256;SDS011;67272;48.066;11.038;2023-05-10T09:12:30;1.77;;;1.10;;
39256;SDS011;67272;48.066;11.038;2023-05-10T09:14:57;1.00;;;1.00;;
39256;SDS011;67272;48.066;11.038;2023-05-10T09:17:25;1.70;;;1.00;;
39256;SDS011;67272;48.066;11.038;2023-05-10T09:19:59;0.90;;;0.90;;
39256;SDS011;67272;48.066;11.038;2023-05-10T09:22:26;1.10;;;1.00;;
39256;SDS011;67272;48.066;11.038;2023-05-10T09:27:32;1.00;;;1.00;;
39256;SDS011;67272;48.066;11.038;2023-05-10T09:29:58;1.50;;;1.13;;
39256;SDS011;67272;48.066;11.038;2023-05-10T09:32:35;1.00;;;1.00;;
39256;SDS011;67272;48.066;11.038;2023-05-10T09:35:08;1.30;;;1.20;;
39256;SDS011;67272;48.066;11.038;2023-05-10T09:37:35;1.20;;;1.10;;
39256;SDS011;67272;48.066;11.038;2023-05-10T09:40:04;1.17;;;1.10;;
39256;SDS011;67272;48.066;11.038;2023-05-10T09:42:31;1.25;;;1.00;;
39256;SDS011;67272;48.066;11.038;2023-05-10T09:45:03;1.20;;;1.10;;
39256;SDS011;67272;48.066;11.038;2023-05-10T09:47:36;1.00;;;1.00;;
39256;SDS011;67272;48.066;11.038;2023-05-10T09:50:02;1.17;;;1.10;;
39256;SDS011;67272;48.066;11.038;2023-05-10T09:52:30;1.00;;;1.00;;
39256;SDS011;67272;48.066;11.038;2023-05-10T09:54:57;1.00;;;0.90;;
39256;SDS011;67272;48.066;11.038;2023-05-10T09:57:24;0.80;;;0.80;;
39256;SDS011;67272;48.066;11.038;2023-05-10T09:59:51;0.80;;;0.80;;
39256;SDS011;67272;48.066;11.038;2023-05-10T10:02:19;0.80;;;0.80;;
39256;SDS011;67272;48.066;11.038;2023-05-10T10:04:48;0.80;;;0.80;;
39256;SDS011;67272;48.066;11.038;2023-05-10T10:07:17;1.00;;;1.00;;
39256;SDS011;67272;48.066;11.038;2023-05-10T10:09:48;1.88;;;1.25;;
39256;SDS011;67272;48.066;11.038;2023-05-10T10:12:15;1.77;;;1.00;;
39256;SDS011;67272;48.066;11.038;2023-05-10T10:14:41;1.10;;;0.95;;
39256;SDS011;67272;48.066;11.038;2023-05-10T10:17:07;1.05;;;1.02;;
39256;SDS011;67272;48.066;11.038;2023-05-10T10:19:35;2.22;;;1.15;;
39256;SDS011;67272;48.066;11.038;2023-05-10T10:22:01;2.05;;;1.17;;
39256;SDS011;67272;48.066;11.038;2023-05-10T10:24:28;1.08;;;1.00;;
39256;SDS011;67272;48.066;11.038;2023-05-10T10:26:55;1.40;;;1.00;;
39256;SDS011;67272;48.066;11.038;2023-05-10T10:29:38;1.02;;;1.00;;
39256;SDS011;67272;48.066;11.038;2023-05-10T10:34:50;1.02;;;1.00;;
39256;SDS011;67272;48.066;11.038;2023-05-10T10:37:17;1.20;;;1.20;;
39256;SDS011;67272;48.066;11.038;2023-05-10T10:39:43;1.20;;;1.17;;
39256;SDS011;67272;48.066;11.038;2023-05-10T10:42:10;1.70;;;1.60;;
39256;SDS011;67272;48.066;11.038;2023-05-10T10:44:37;1.50;;;1.40;;
39256;SDS011;67272;48.066;11.038;2023-05-10T10:49:48;1.38;;;1.27;;
39256;SDS011;67272;48.066;11.038;2023-05-10T10:54:49;1.55;;;1.45;;
39256;SDS011;67272;48.066;11.038;2023-05-10T10:57:17;1.40;;;1.30;;
39256;SDS011;67272;48.066;11.038;2023-05-10T10:59:44;1.50;;;1.40;;
39256;SDS011;67272;48.066;11.038;2023-05-10T11:02:31;1.70;;;1.20;;
39256;SDS011;67272;48.066;11.038;2023-05-10T11:04:56;1.13;;;1.13;;
39256;SDS011;67272;48.066;11.038;2023-05-10T11:07:26;1.75;;;1.30;;
39256;SDS011;67272;48.066;11.038;2023-05-10T11:09:52;1.63;;;1.25;;
39256;SDS011;67272;48.066;11.038;2023-05-10T11:12:18;1.50;;;1.40;;
39256;SDS011;67272;48.066;11.038;2023-05-10T11:14:49;1.25;;;1.15;;
39256;SDS011;67272;48.066;11.038;2023-05-10T11:17:23;1.33;;;1.20;;
39256;SDS011;67272;48.066;11.038;2023-05-10T11:20:09;1.25;;;1.15;;
39256;SDS011;67272;48.066;11.038;2023-05-10T11:22:54;1.40;;;1.30;;
39256;SDS011;67272;48.066;11.038;2023-05-10T11:25:26;1.50;;;1.40;;
39256;SDS011;67272;48.066;11.038;2023-05-10T11:27:53;1.50;;;1.40;;
39256;SDS011;67272;48.066;11.038;2023-05-10T11:30:19;1.50;;;1.40;;
39256;SDS011;67272;48.066;11.038;2023-05-10T11:32:46;1.40;;;1.30;;
39256;SDS011;67272;48.066;11.038;2023-05-10T11:35:12;1.40;;;1.30;;
39256;SDS011;67272;48.066;11.038;2023-05-10T11:37:41;1.33;;;1.23;;
39256;SDS011;67272;48.066;11.038;2023-05-10T11:40:09;1.35;;;1.20;;
39256;SDS011;67272;48.066;11.038;2023-05-10T11:42:36;1.40;;;1.10;;
39256;SDS011;67272;48.066;11.038;2023-05-10T11:45:03;1.67;;;1.27;;
39256;SDS011;67272;48.066;11.038;2023-05-10T11:47:30;1.40;;;1.30;;
39256;SDS011;67272;48.066;11.038;2023-05-10T11:49:56;1.30;;;1.20;;
39256;SDS011;67272;48.066;11.038;2023-05-10T11:52:23;1.80;;;1.15;;
39256;SDS011;67272;48.066;11.038;2023-05-10T11:54:52;1.30;;;1.20;;
39256;SDS011;67272;48.066;11.038;2023-05-10T11:57:19;1.20;;;1.10;;
39256;SDS011;67272;48.066;11.038;2023-05-10T11:59:49;1.30;;;1.20;;
39256;SDS011;67272;48.066;11.038;2023-05-10T12:02:20;1.58;;;1.42;;
39256;SDS011;67272;48.066;11.038;2023-05-10T12:04:46;1.83;;;1.73;;
39256;SDS011;67272;48.066;11.038;2023-05-10T12:07:12;1.50;;;1.40;;
39256;SDS011;67272;48.066;11.038;2023-05-10T12:10:01;1.17;;;1.08;;
39256;SDS011;67272;48.066;11.038;2023-05-10T12:12:34;1.30;;;1.20;;
39256;SDS011;67272;48.066;11.038;2023-05-10T12:15:01;1.50;;;1.40;;
39256;SDS011;67272;48.066;11.038;2023-05-10T12:17:28;1.75;;;1.15;;
39256;SDS011;67272;48.066;11.038;2023-05-10T12:19:58;1.40;;;1.30;;
39256;SDS011;67272;48.066;11.038;2023-05-10T12:22:25;1.60;;;1.40;;
39256;SDS011;67272;48.066;11.038;2023-05-10T12:24:51;2.10;;;1.20;;
39256;SDS011;67272;48.066;11.038;2023-05-10T12:27:18;1.38;;;1.27;;
39256;SDS011;67272;48.066;11.038;2023-05-10T12:29:44;1.20;;;1.20;;
39256;SDS011;67272;48.066;11.038;2023-05-10T12:32:10;1.33;;;1.20;;
39256;SDS011;67272;48.066;11.038;2023-05-10T12:34:36;1.30;;;1.20;;
39256;SDS011;67272;48.066;11.038;2023-05-10T12:37:03;1.65;;;1.10;;
39256;SDS011;67272;48.066;11.038;2023-05-10T12:42:05;1.75;;;1.30;;
39256;SDS011;67272;48.066;11.038;2023-05-10T12:44:31;1.10;;;1.00;;
39256;SDS011;67272;48.066;11.038;2023-05-10T12:46:57;1.00;;;0.90;;
39256;SDS011;67272;48.066;11.038;2023-05-10T12:49:23;1.00;;;1.00;;
39256;SDS011;67272;48.066;11.038;2023-05-10T12:51:49;1.48;;;1.00;;
39256;SDS011;67272;48.066;11.038;2023-05-10T12:54:16;0.90;;;0.90;;
39256;SDS011;67272;48.066;11.038;2023-05-10T12:56:42;1.08;;;1.08;;
39256;SDS011;67272;48.066;11.038;2023-05-10T12:59:08;1.25;;;1.15;;
39256;SDS011;67272;48.066;11.038;2023-05-10T13:01:34;1.00;;;0.90;;
39256;SDS011;67272;48.066;11.038;2023-05-10T13:04:01;1.67;;;1.15;;
39256;SDS011;67272;48.066;11.038;2023-05-10T13:06:27;1.20;;;1.10;;
39256;SDS011;67272;48.066;11.038;2023-05-10T13:08:54;1.00;;;1.00;;
39256;SDS011;67272;48.066;11.038;2023-05-10T13:11:20;1.10;;;1.00;;
39256;SDS011;67272;48.066;11.038;2023-05-10T13:13:46;1.13;;;0.80;;
39256;SDS011;67272;48.066;11.038;2023-05-10T13:16:12;5.97;;;0.90;;
39256;SDS011;67272;48.066;11.038;2023-05-10T13:18:38;0.80;;;0.80;;
39256;SDS011;67272;48.066;11.038;2023-05-10T13:21:05;1.02;;;0.93;;
39256;SDS011;67272;48.066;11.038;2023-05-10T13:23:33;1.17;;;1.08;;
39256;SDS011;67272;48.066;11.038;2023-05-10T13:25:59;1.30;;;1.20;;
39256;SDS011;67272;48.066;11.038;2023-05-10T13:28:25;1.20;;;0.95;;
39256;SDS011;67272;48.066;11.038;2023-05-10T13:30:51;1.05;;;0.90;;
39256;SDS011;67272;48.066;11.038;2023-05-10T13:33:18;0.90;;;0.90;;
39256;SDS011;67272;48.066;11.038;2023-05-10T13:35:44;1.88;;;0.95;;
39256;SDS011;67272;48.066;11.038;2023-05-10T13:38:10;0.82;;;0.80;;
39256;SDS011;67272;48.066;11.038;2023-05-10T13:40:36;1.73;;;0.90;;
39256;SDS011;67272;48.066;11.038;2023-05-10T13:43:02;0.80;;;0.80;;
39256;SDS011;67272;48.066;11.038;2023-05-10T13:45:29;1.60;;;0.80;;
39256;SDS011;67272;48.066;11.038;2023-05-10T13:47:55;1.80;;;1.02;;
39256;SDS011;67272;48.066;11.038;2023-05-10T13:50:21;1.10;;;1.00;;
39256;SDS011;67272;48.066;11.038;2023-05-10T13:52:47;1.02;;;1.00;;
39256;SDS011;67272;48.066;11.038;2023-05-10T13:55:13;1.10;;;1.00;;
39256;SDS011;67272;48.066;11.038;2023-05-10T13:57:39;1.83;;;0.93;;
39256;SDS011;67272;48.066;11.038;2023-05-10T14:00:06;1.10;;;1.00;;
39256;SDS011;67272;48.066;11.038;2023-05-10T14:02:35;1.13;;;0.80;;
39256;SDS011;67272;48.066;11.038;2023-05-10T14:05:01;0.80;;;0.80;;
39256;SDS011;67272;48.066;11.038;2023-05-10T14:07:28;0.90;;;0.80;;
39256;SDS011;67272;48.066;11.038;2023-05-10T14:09:54;0.90;;;0.90;;
39256;SDS011;67272;48.066;11.038;2023-05-10T14:12:20;1.00;;;1.00;;
39256;SDS011;67272;48.066;11.038;2023-05-10T14:14:46;1.23;;;1.13;;
39256;SDS011;67272;48.066;11.038;2023-05-10T14:17:12;1.58;;;1.08;;
39256;SDS011;67272;48.066;11.038;2023-05-10T14:19:38;1.02;;;0.93;;
39256;SDS011;67272;48.066;11.038;2023-05-10T14:22:05;1.00;;;1.00;;
39256;SDS011;67272;48.066;11.038;2023-05-10T14:24:31;1.00;;;0.90;;
39256;SDS011;67272;48.066;11.038;2023-05-10T14:27:03;1.02;;;1.00;;
39256;SDS011;67272;48.066;11.038;2023-05-10T14:29:31;1.30;;;1.10;;
39256;SDS011;67272;48.066;11.038;2023-05-10T14:31:57;1.42;;;1.10;;
39256;SDS011;67272;48.066;11.038;2023-05-10T14:34:23;1.15;;;1.05;;
39256;SDS011;67272;48.066;11.038;2023-05-10T14:36:53;0.90;;;0.90;;
39256;SDS011;67272;48.066;11.038;2023-05-10T14:39:20;1.15;;;1.05;;
39256;SDS011;67272;48.066;11.038;2023-05-10T14:44:20;1.42;;;1.00;;
39256;SDS011;67272;48.066;11.038;2023-05-10T14:46:53;1.15;;;1.00;;
39256;SDS011;67272;48.066;11.038;2023-05-10T14:49:19;0.90;;;0.90;;
39256;SDS011;67272;48.066;11.038;2023-05-10T14:51:49;1.77;;;1.05;;
39256;SDS011;67272;48.066;11.038;2023-05-10T14:54:18;1.30;;;1.17;;
39256;SDS011;67272;48.066;11.038;2023-05-10T14:56:47;1.23;;;1.13;;
39256;SDS011;67272;48.066;11.038;2023-05-10T14:59:15;1.52;;;1.10;;
39256;SDS011;67272;48.066;11.038;2023-05-10T15:01:41;1.33;;;1.23;;
39256;SDS011;67272;48.066;11.038;2023-05-10T15:04:07;1.20;;;1.10;;
39256;SDS011;67272;48.066;11.038;2023-05-10T15:06:34;1.08;;;0.98;;
39256;SDS011;67272;48.066;11.038;2023-05-10T15:09:00;0.90;;;0.90;;
39256;SDS011;67272;48.066;11.038;2023-05-10T15:11:27;1.40;;;0.80;;
39256;SDS011;67272;48.066;11.038;2023-05-10T15:13:54;1.08;;;1.00;;